sensor_id;sensor_type;location;lat;lon;timestamp;P1;durP1;ratioP1;P2;durP2;ratioP2
20093;SDS011;10206;48.012;10.030;2023-01-19T00:01:26;14.10;;;9.13;;
20093;SDS011;10206;48.012;10.030;2023-01-19T00:03:52;16.10;;;9.53;;
20093;SDS011;10206;48.012;10.030;2023-01-19T00:06:18;16.53;;;9.67;;
20093;SDS011;10206;48.012;10.030;2023-01-19T00:08:44;17.10;;;10.03;;
20093;SDS011;10206;48.012;10.030;2023-01-19T00:11:12;16.03;;;10.10;;
20093;SDS011;10206;48.012;10.030;2023-01-19T00:13:39;17.30;;;10.67;;
20093;SDS011;10206;48.012;10.030;2023-01-19T00:16:05;17.03;;;10.43;;
20093;SDS011;10206;48.012;10.030;2023-01-19T00:18:32;15.80;;;10.37;;
20093;SDS011;10206;48.012;10.030;2023-01-19T00:20:58;14.63;;;10.33;;
20093;SDS011;10206;48.012;10.030;2023-01-19T00:23:24;16.00;;;10.87;;
20093;SDS011;10206;48.012;10.030;2023-01-19T00:25:50;15.43;;;10.20;;
20093;SDS011;10206;48.012;10.030;2023-01-19T00:28:17;17.73;;;10.43;;
20093;SDS011;10206;48.012;10.030;2023-01-19T00:30:44;14.00;;;9.60;;
20093;SDS011;10206;48.012;10.030;2023-01-19T00:33:11;16.20;;;10.43;;
20093;SDS011;10206;48.012;10.030;2023-01-19T00:35:38;13.87;;;10.13;;
20093;SDS011;10206;48.012;10.030;2023-01-19T00:38:06;16.67;;;9.93;;
20093;SDS011;10206;48.012;10.030;2023-01-19T00:40:33;15.70;;;10.03;;
20093;SDS011;10206;48.012;10.030;2023-01-19T00:42:59;15.40;;;10.43;;
20093;SDS011;10206;48.012;10.030;2023-01-19T00:45:25;16.20;;;9.97;;
20093;SDS011;10206;48.012;10.030;2023-01-19T00:47:51;17.40;;;11.10;;
20093;SDS011;10206;48.012;10.030;2023-01-19T00:50:21;14.37;;;10.07;;
20093;SDS011;10206;48.012;10.030;2023-01-19T00:52:48;18.77;;;10.10;;
20093;SDS011;10206;48.012;10.030;2023-01-19T00:55:15;16.93;;;11.03;;
20093;SDS011;10206;48.012;10.030;2023-01-19T00:57:41;18.40;;;10.70;;
20093;SDS011;10206;48.012;10.030;2023-01-19T01:00:10;16.50;;;10.43;;
20093;SDS011;10206;48.012;10.030;2023-01-19T01:02:38;18.10;;;10.13;;
20093;SDS011;10206;48.012;10.030;2023-01-19T01:05:05;16.80;;;10.70;;
20093;SDS011;10206;48.012;10.030;2023-01-19T01:07:32;14.20;;;9.93;;
20093;SDS011;10206;48.012;10.030;2023-01-19T01:10:04;17.50;;;9.87;;
20093;SDS011;10206;48.012;10.030;2023-01-19T01:12:35;17.33;;;10.27;;
20093;SDS011;10206;48.012;10.030;2023-01-19T01:15:02;16.87;;;10.90;;
20093;SDS011;10206;48.012;10.030;2023-01-19T01:17:32;17.67;;;10.47;;
20093;SDS011;10206;48.012;10.030;2023-01-19T01:19:59;17.20;;;10.60;;
20093;SDS011;10206;48.012;10.030;2023-01-19T01:22:25;15.43;;;10.93;;
20093;SDS011;10206;48.012;10.030;2023-01-19T01:24:51;19.07;;;10.80;;
20093;SDS011;10206;48.012;10.030;2023-01-19T01:27:17;14.67;;;10.67;;
20093;SDS011;10206;48.012;10.030;2023-01-19T01:29:43;17.50;;;11.00;;
20093;SDS011;10206;48.012;10.030;2023-01-19T01:32:13;14.50;;;10.27;;
20093;SDS011;10206;48.012;10.030;2023-01-19T01:34:40;16.90;;;11.67;;
20093;SDS011;10206;48.012;10.030;2023-01-19T01:37:06;17.50;;;11.20;;
20093;SDS011;10206;48.012;10.030;2023-01-19T01:39:36;19.40;;;11.83;;
20093;SDS011;10206;48.012;10.030;2023-01-19T01:42:03;17.43;;;11.80;;
20093;SDS011;10206;48.012;10.030;2023-01-19T01:49:45;21.20;;;13.13;;
20093;SDS011;10206;48.012;10.030;2023-01-19T01:52:12;17.13;;;12.23;;
20093;SDS011;10206;48.012;10.030;2023-01-19T01:54:39;16.87;;;11.80;;
20093;SDS011;10206;48.012;10.030;2023-01-19T01:57:06;17.87;;;12.00;;
20093;SDS011;10206;48.012;10.030;2023-01-19T01:59:38;19.07;;;12.37;;
20093;SDS011;10206;48.012;10.030;2023-01-19T02:02:10;17.77;;;12.40;;
20093;SDS011;10206;48.012;10.030;2023-01-19T02:05:04;17.97;;;11.80;;
20093;SDS011;10206;48.012;10.030;2023-01-19T02:08:01;17.70;;;12.43;;
20093;SDS011;10206;48.012;10.030;2023-01-19T02:10:52;16.60;;;11.10;;
20093;SDS011;10206;48.012;10.030;2023-01-19T02:13:38;16.63;;;11.67;;
20093;SDS011;10206;48.012;10.030;2023-01-19T02:16:11;16.37;;;12.03;;
20093;SDS011;10206;48.012;10.030;2023-01-19T02:18:38;16.47;;;10.93;;
20093;SDS011;10206;48.012;10.030;2023-01-19T02:21:13;19.07;;;12.13;;
20093;SDS011;10206;48.012;10.030;2023-01-19T02:26:22;18.30;;;11.70;;
20093;SDS011;10206;48.012;10.030;2023-01-19T02:28:56;17.87;;;11.47;;
20093;SDS011;10206;48.012;10.030;2023-01-19T02:31:24;15.37;;;10.30;;
20093;SDS011;10206;48.012;10.030;2023-01-19T02:33:52;16.23;;;10.63;;
20093;SDS011;10206;48.012;10.030;2023-01-19T02:36:23;18.10;;;11.63;;
20093;SDS011;10206;48.012;10.030;2023-01-19T02:38:55;15.53;;;11.17;;
20093;SDS011;10206;48.012;10.030;2023-01-19T02:41:25;17.53;;;11.60;;
20093;SDS011;10206;48.012;10.030;2023-01-19T02:43:56;19.20;;;11.77;;
20093;SDS011;10206;48.012;10.030;2023-01-19T02:46:24;16.43;;;11.67;;
20093;SDS011;10206;48.012;10.030;2023-01-19T02:48:50;17.80;;;11.93;;
20093;SDS011;10206;48.012;10.030;2023-01-19T02:51:17;18.73;;;11.13;;
20093;SDS011;10206;48.012;10.030;2023-01-19T02:59:13;15.17;;;11.33;;
20093;SDS011;10206;48.012;10.030;2023-01-19T03:01:55;20.43;;;11.13;;
20093;SDS011;10206;48.012;10.030;2023-01-19T03:04:48;16.80;;;10.27;;
20093;SDS011;10206;48.012;10.030;2023-01-19T03:07:55;18.27;;;10.53;;
20093;SDS011;10206;48.012;10.030;2023-01-19T03:13:05;18.17;;;11.97;;
20093;SDS011;10206;48.012;10.030;2023-01-19T03:15:44;17.30;;;11.33;;
20093;SDS011;10206;48.012;10.030;2023-01-19T03:18:13;16.43;;;10.77;;
20093;SDS011;10206;48.012;10.030;2023-01-19T03:20:44;18.93;;;11.23;;
20093;SDS011;10206;48.012;10.030;2023-01-19T03:23:11;18.47;;;11.70;;
20093;SDS011;10206;48.012;10.030;2023-01-19T03:25:41;19.33;;;11.77;;
20093;SDS011;10206;48.012;10.030;2023-01-19T03:28:10;15.97;;;10.83;;
20093;SDS011;10206;48.012;10.030;2023-01-19T03:30:39;16.43;;;11.33;;
20093;SDS011;10206;48.012;10.030;2023-01-19T03:33:12;17.80;;;11.33;;
20093;SDS011;10206;48.012;10.030;2023-01-19T03:35:52;18.03;;;11.63;;
20093;SDS011;10206;48.012;10.030;2023-01-19T03:38:24;17.77;;;10.87;;
20093;SDS011;10206;48.012;10.030;2023-01-19T03:40:52;15.63;;;10.70;;
20093;SDS011;10206;48.012;10.030;2023-01-19T03:43:22;17.63;;;11.37;;
20093;SDS011;10206;48.012;10.030;2023-01-19T03:45:50;18.63;;;11.53;;
20093;SDS011;10206;48.012;10.030;2023-01-19T03:48:19;17.73;;;11.17;;
20093;SDS011;10206;48.012;10.030;2023-01-19T03:50:46;17.07;;;10.90;;
20093;SDS011;10206;48.012;10.030;2023-01-19T03:53:13;18.40;;;11.40;;
20093;SDS011;10206;48.012;10.030;2023-01-19T03:55:41;18.07;;;11.97;;
20093;SDS011;10206;48.012;10.030;2023-01-19T03:58:10;19.33;;;11.33;;
20093;SDS011;10206;48.012;10.030;2023-01-19T04:00:36;18.83;;;11.47;;
20093;SDS011;10206;48.012;10.030;2023-01-19T04:03:03;17.77;;;11.33;;
20093;SDS011;10206;48.012;10.030;2023-01-19T04:05:30;17.80;;;11.07;;
20093;SDS011;10206;48.012;10.030;2023-01-19T04:07:57;18.90;;;11.50;;
20093;SDS011;10206;48.012;10.030;2023-01-19T04:10:24;17.23;;;11.13;;
20093;SDS011;10206;48.012;10.030;2023-01-19T04:12:55;16.80;;;11.47;;
20093;SDS011;10206;48.012;10.030;2023-01-19T04:15:23;18.70;;;11.43;;
20093;SDS011;10206;48.012;10.030;2023-01-19T04:17:49;17.97;;;11.03;;
20093;SDS011;10206;48.012;10.030;2023-01-19T04:20:16;19.27;;;11.53;;
20093;SDS011;10206;48.012;10.030;2023-01-19T04:22:42;16.40;;;11.37;;
20093;SDS011;10206;48.012;10.030;2023-01-19T04:25:08;20.53;;;11.30;;
20093;SDS011;10206;48.012;10.030;2023-01-19T04:27:35;18.67;;;11.63;;
20093;SDS011;10206;48.012;10.030;2023-01-19T04:30:02;19.07;;;11.63;;
20093;SDS011;10206;48.012;10.030;2023-01-19T04:32:28;24.30;;;12.80;;
20093;SDS011;10206;48.012;10.030;2023-01-19T04:34:56;21.00;;;11.23;;
20093;SDS011;10206;48.012;10.030;2023-01-19T04:37:22;19.30;;;11.60;;
20093;SDS011;10206;48.012;10.030;2023-01-19T04:39:48;20.50;;;11.77;;
20093;SDS011;10206;48.012;10.030;2023-01-19T04:42:14;17.37;;;11.30;;
20093;SDS011;10206;48.012;10.030;2023-01-19T04:44:41;16.77;;;11.80;;
20093;SDS011;10206;48.012;10.030;2023-01-19T04:47:07;18.27;;;12.20;;
20093;SDS011;10206;48.012;10.030;2023-01-19T04:49:33;20.40;;;11.53;;
20093;SDS011;10206;48.012;10.030;2023-01-19T04:52:05;18.33;;;11.90;;
20093;SDS011;10206;48.012;10.030;2023-01-19T04:54:31;20.10;;;12.80;;
20093;SDS011;10206;48.012;10.030;2023-01-19T04:56:57;19.40;;;12.57;;
20093;SDS011;10206;48.012;10.030;2023-01-19T04:59:23;21.17;;;11.80;;
20093;SDS011;10206;48.012;10.030;2023-01-19T05:01:49;23.40;;;13.57;;
20093;SDS011;10206;48.012;10.030;2023-01-19T05:04:15;26.63;;;13.77;;
20093;SDS011;10206;48.012;10.030;2023-01-19T05:06:42;21.63;;;13.23;;
20093;SDS011;10206;48.012;10.030;2023-01-19T05:09:08;21.37;;;13.40;;
20093;SDS011;10206;48.012;10.030;2023-01-19T05:11:37;22.17;;;13.37;;
20093;SDS011;10206;48.012;10.030;2023-01-19T05:14:03;22.60;;;14.07;;
20093;SDS011;10206;48.012;10.030;2023-01-19T05:16:29;24.63;;;13.93;;
20093;SDS011;10206;48.012;10.030;2023-01-19T05:18:55;27.73;;;15.20;;
20093;SDS011;10206;48.012;10.030;2023-01-19T05:21:21;25.90;;;14.17;;
20093;SDS011;10206;48.012;10.030;2023-01-19T05:23:47;25.60;;;13.80;;
20093;SDS011;10206;48.012;10.030;2023-01-19T05:26:13;23.60;;;14.73;;
20093;SDS011;10206;48.012;10.030;2023-01-19T05:28:40;22.87;;;14.63;;
20093;SDS011;10206;48.012;10.030;2023-01-19T05:31:06;28.83;;;16.13;;
20093;SDS011;10206;48.012;10.030;2023-01-19T05:33:32;27.67;;;16.03;;
20093;SDS011;10206;48.012;10.030;2023-01-19T05:35:58;26.13;;;15.30;;
20093;SDS011;10206;48.012;10.030;2023-01-19T05:38:24;25.63;;;15.37;;
20093;SDS011;10206;48.012;10.030;2023-01-19T05:40:55;32.70;;;17.07;;
20093;SDS011;10206;48.012;10.030;2023-01-19T05:43:22;30.07;;;16.17;;
20093;SDS011;10206;48.012;10.030;2023-01-19T05:45:51;29.03;;;16.77;;
20093;SDS011;10206;48.012;10.030;2023-01-19T05:48:17;30.67;;;16.30;;
20093;SDS011;10206;48.012;10.030;2023-01-19T05:50:43;27.10;;;15.60;;
20093;SDS011;10206;48.012;10.030;2023-01-19T05:53:09;27.60;;;16.10;;
20093;SDS011;10206;48.012;10.030;2023-01-19T05:55:35;27.57;;;16.33;;
20093;SDS011;10206;48.012;10.030;2023-01-19T05:58:01;30.73;;;17.00;;
20093;SDS011;10206;48.012;10.030;2023-01-19T06:00:28;28.57;;;15.83;;
20093;SDS011;10206;48.012;10.030;2023-01-19T06:02:54;26.53;;;14.37;;
20093;SDS011;10206;48.012;10.030;2023-01-19T06:05:20;26.37;;;15.27;;
20093;SDS011;10206;48.012;10.030;2023-01-19T06:07:46;28.63;;;16.53;;
20093;SDS011;10206;48.012;10.030;2023-01-19T06:10:12;29.20;;;15.30;;
20093;SDS011;10206;48.012;10.030;2023-01-19T06:12:38;30.87;;;16.90;;
20093;SDS011;10206;48.012;10.030;2023-01-19T06:15:06;31.90;;;16.43;;
20093;SDS011;10206;48.012;10.030;2023-01-19T06:17:32;30.30;;;16.20;;
20093;SDS011;10206;48.012;10.030;2023-01-19T06:19:58;27.00;;;15.67;;
20093;SDS011;10206;48.012;10.030;2023-01-19T06:22:24;24.80;;;15.70;;
20093;SDS011;10206;48.012;10.030;2023-01-19T06:24:50;33.93;;;16.27;;
20093;SDS011;10206;48.012;10.030;2023-01-19T06:27:16;27.00;;;15.60;;
20093;SDS011;10206;48.012;10.030;2023-01-19T06:29:43;30.97;;;17.37;;
20093;SDS011;10206;48.012;10.030;2023-01-19T06:32:09;31.80;;;16.63;;
20093;SDS011;10206;48.012;10.030;2023-01-19T06:34:35;29.07;;;16.40;;
20093;SDS011;10206;48.012;10.030;2023-01-19T06:37:02;28.03;;;15.93;;
20093;SDS011;10206;48.012;10.030;2023-01-19T06:39:29;31.90;;;16.87;;
20093;SDS011;10206;48.012;10.030;2023-01-19T06:41:55;28.27;;;16.70;;
20093;SDS011;10206;48.012;10.030;2023-01-19T06:44:21;30.97;;;17.77;;
20093;SDS011;10206;48.012;10.030;2023-01-19T06:46:47;32.40;;;17.33;;
20093;SDS011;10206;48.012;10.030;2023-01-19T06:49:13;31.67;;;17.30;;
20093;SDS011;10206;48.012;10.030;2023-01-19T06:51:39;31.90;;;16.80;;
20093;SDS011;10206;48.012;10.030;2023-01-19T06:54:05;31.23;;;16.83;;
20093;SDS011;10206;48.012;10.030;2023-01-19T06:56:31;32.73;;;17.40;;
20093;SDS011;10206;48.012;10.030;2023-01-19T06:58:57;33.57;;;17.03;;
20093;SDS011;10206;48.012;10.030;2023-01-19T07:01:23;31.73;;;16.73;;
20093;SDS011;10206;48.012;10.030;2023-01-19T07:03:50;32.33;;;17.03;;
20093;SDS011;10206;48.012;10.030;2023-01-19T07:06:17;29.67;;;16.53;;
20093;SDS011;10206;48.012;10.030;2023-01-19T07:08:43;30.37;;;16.13;;
20093;SDS011;10206;48.012;10.030;2023-01-19T07:11:10;27.23;;;16.67;;
20093;SDS011;10206;48.012;10.030;2023-01-19T07:13:37;30.03;;;16.67;;
20093;SDS011;10206;48.012;10.030;2023-01-19T07:16:04;31.43;;;17.00;;
20093;SDS011;10206;48.012;10.030;2023-01-19T07:18:32;31.53;;;16.83;;
20093;SDS011;10206;48.012;10.030;2023-01-19T07:20:58;29.00;;;17.73;;
20093;SDS011;10206;48.012;10.030;2023-01-19T07:23:25;32.83;;;16.80;;
20093;SDS011;10206;48.012;10.030;2023-01-19T07:25:54;33.33;;;17.60;;
20093;SDS011;10206;48.012;10.030;2023-01-19T07:28:21;31.87;;;16.47;;
20093;SDS011;10206;48.012;10.030;2023-01-19T07:30:49;32.33;;;16.77;;
20093;SDS011;10206;48.012;10.030;2023-01-19T07:33:16;31.10;;;15.37;;
20093;SDS011;10206;48.012;10.030;2023-01-19T07:35:45;29.77;;;15.53;;
20093;SDS011;10206;48.012;10.030;2023-01-19T07:38:12;27.40;;;15.20;;
20093;SDS011;10206;48.012;10.030;2023-01-19T07:40:39;26.03;;;15.37;;
20093;SDS011;10206;48.012;10.030;2023-01-19T07:43:06;26.50;;;14.93;;
20093;SDS011;10206;48.012;10.030;2023-01-19T07:45:32;26.47;;;15.00;;
20093;SDS011;10206;48.012;10.030;2023-01-19T07:47:59;28.17;;;15.20;;
20093;SDS011;10206;48.012;10.030;2023-01-19T07:50:25;26.77;;;15.10;;
20093;SDS011;10206;48.012;10.030;2023-01-19T07:52:53;23.17;;;13.80;;
20093;SDS011;10206;48.012;10.030;2023-01-19T07:55:21;24.77;;;13.83;;
20093;SDS011;10206;48.012;10.030;2023-01-19T07:57:50;24.80;;;14.63;;
20093;SDS011;10206;48.012;10.030;2023-01-19T08:00:18;24.73;;;15.23;;
20093;SDS011;10206;48.012;10.030;2023-01-19T08:02:48;27.07;;;15.03;;
20093;SDS011;10206;48.012;10.030;2023-01-19T08:05:16;26.70;;;14.70;;
20093;SDS011;10206;48.012;10.030;2023-01-19T08:07:43;38.57;;;18.63;;
20093;SDS011;10206;48.012;10.030;2023-01-19T08:10:11;43.43;;;21.43;;
20093;SDS011;10206;48.012;10.030;2023-01-19T08:12:38;44.70;;;23.40;;
20093;SDS011;10206;48.012;10.030;2023-01-19T08:15:06;43.97;;;23.40;;
20093;SDS011;10206;48.012;10.030;2023-01-19T08:17:33;29.63;;;17.73;;
20093;SDS011;10206;48.012;10.030;2023-01-19T08:19:59;45.57;;;22.97;;
20093;SDS011;10206;48.012;10.030;2023-01-19T08:22:25;30.90;;;16.57;;
20093;SDS011;10206;48.012;10.030;2023-01-19T08:24:51;35.10;;;18.33;;
20093;SDS011;10206;48.012;10.030;2023-01-19T08:27:18;31.50;;;16.73;;
20093;SDS011;10206;48.012;10.030;2023-01-19T08:29:45;29.73;;;17.27;;
20093;SDS011;10206;48.012;10.030;2023-01-19T08:32:11;29.03;;;16.67;;
20093;SDS011;10206;48.012;10.030;2023-01-19T08:34:37;31.70;;;17.87;;
20093;SDS011;10206;48.012;10.030;2023-01-19T08:37:03;30.47;;;16.90;;
20093;SDS011;10206;48.012;10.030;2023-01-19T08:39:29;73.17;;;33.77;;
20093;SDS011;10206;48.012;10.030;2023-01-19T08:41:55;60.80;;;26.70;;
20093;SDS011;10206;48.012;10.030;2023-01-19T08:44:23;64.77;;;30.50;;
20093;SDS011;10206;48.012;10.030;2023-01-19T08:46:49;54.93;;;26.23;;
20093;SDS011;10206;48.012;10.030;2023-01-19T08:49:15;52.13;;;24.70;;
20093;SDS011;10206;48.012;10.030;2023-01-19T08:51:41;65.30;;;30.93;;
20093;SDS011;10206;48.012;10.030;2023-01-19T08:54:10;63.33;;;29.37;;
20093;SDS011;10206;48.012;10.030;2023-01-19T08:56:37;49.73;;;22.07;;
20093;SDS011;10206;48.012;10.030;2023-01-19T08:59:03;187.97;;;72.80;;
20093;SDS011;10206;48.012;10.030;2023-01-19T09:01:29;123.50;;;46.23;;
20093;SDS011;10206;48.012;10.030;2023-01-19T09:03:55;35.60;;;17.40;;
20093;SDS011;10206;48.012;10.030;2023-01-19T09:06:21;26.90;;;14.40;;
20093;SDS011;10206;48.012;10.030;2023-01-19T09:08:49;22.10;;;13.60;;
20093;SDS011;10206;48.012;10.030;2023-01-19T09:11:15;60.33;;;27.57;;
20093;SDS011;10206;48.012;10.030;2023-01-19T09:13:41;24.87;;;13.70;;
20093;SDS011;10206;48.012;10.030;2023-01-19T09:16:08;21.93;;;12.90;;
20093;SDS011;10206;48.012;10.030;2023-01-19T09:18:37;22.70;;;12.63;;
20093;SDS011;10206;48.012;10.030;2023-01-19T09:21:03;21.67;;;11.97;;
20093;SDS011;10206;48.012;10.030;2023-01-19T09:23:29;37.27;;;17.97;;
20093;SDS011;10206;48.012;10.030;2023-01-19T09:25:56;23.83;;;12.63;;
20093;SDS011;10206;48.012;10.030;2023-01-19T09:28:24;21.57;;;12.40;;
20093;SDS011;10206;48.012;10.030;2023-01-19T09:30:50;25.70;;;14.30;;
20093;SDS011;10206;48.012;10.030;2023-01-19T09:33:17;24.60;;;13.10;;
20093;SDS011;10206;48.012;10.030;2023-01-19T09:35:44;28.43;;;14.23;;
20093;SDS011;10206;48.012;10.030;2023-01-19T09:38:12;49.90;;;21.67;;
20093;SDS011;10206;48.012;10.030;2023-01-19T09:40:43;52.40;;;22.60;;
20093;SDS011;10206;48.012;10.030;2023-01-19T09:46:24;55.77;;;25.33;;
20093;SDS011;10206;48.012;10.030;2023-01-19T09:49:11;32.20;;;16.57;;
20093;SDS011;10206;48.012;10.030;2023-01-19T09:51:40;22.27;;;12.67;;
20093;SDS011;10206;48.012;10.030;2023-01-19T09:56:44;26.00;;;13.87;;
20093;SDS011;10206;48.012;10.030;2023-01-19T10:01:52;18.70;;;11.43;;
20093;SDS011;10206;48.012;10.030;2023-01-19T10:21:00;17.93;;;11.10;;
20093;SDS011;10206;48.012;10.030;2023-01-19T10:23:40;19.20;;;10.40;;
20093;SDS011;10206;48.012;10.030;2023-01-19T10:26:48;17.63;;;9.87;;
20093;SDS011;10206;48.012;10.030;2023-01-19T10:29:32;15.70;;;10.13;;
20093;SDS011;10206;48.012;10.030;2023-01-19T10:32:08;18.40;;;10.40;;
20093;SDS011;10206;48.012;10.030;2023-01-19T10:34:43;13.90;;;8.40;;
20093;SDS011;10206;48.012;10.030;2023-01-19T10:39:52;15.03;;;8.17;;
20093;SDS011;10206;48.012;10.030;2023-01-19T10:42:21;13.23;;;8.07;;
20093;SDS011;10206;48.012;10.030;2023-01-19T10:44:47;15.60;;;8.47;;
20093;SDS011;10206;48.012;10.030;2023-01-19T10:47:15;15.70;;;9.07;;
20093;SDS011;10206;48.012;10.030;2023-01-19T10:49:43;14.93;;;7.97;;
20093;SDS011;10206;48.012;10.030;2023-01-19T10:52:43;13.07;;;8.23;;
20093;SDS011;10206;48.012;10.030;2023-01-19T10:55:04;12.60;;;8.40;;
20093;SDS011;10206;48.012;10.030;2023-01-19T10:57:35;12.47;;;7.83;;
20093;SDS011;10206;48.012;10.030;2023-01-19T11:00:29;15.63;;;7.63;;
20093;SDS011;10206;48.012;10.030;2023-01-19T11:02:55;14.17;;;8.30;;
20093;SDS011;10206;48.012;10.030;2023-01-19T11:05:25;15.13;;;9.10;;
20093;SDS011;10206;48.012;10.030;2023-01-19T11:07:53;13.97;;;8.50;;
20093;SDS011;10206;48.012;10.030;2023-01-19T11:10:21;13.33;;;8.87;;
20093;SDS011;10206;48.012;10.030;2023-01-19T11:15:34;13.07;;;8.27;;
20093;SDS011;10206;48.012;10.030;2023-01-19T11:18:31;14.67;;;9.63;;
20093;SDS011;10206;48.012;10.030;2023-01-19T11:21:00;13.20;;;8.23;;
20093;SDS011;10206;48.012;10.030;2023-01-19T11:23:34;13.47;;;8.43;;
20093;SDS011;10206;48.012;10.030;2023-01-19T11:26:12;13.03;;;8.63;;
20093;SDS011;10206;48.012;10.030;2023-01-19T11:28:48;11.87;;;7.90;;
20093;SDS011;10206;48.012;10.030;2023-01-19T11:31:18;13.13;;;8.57;;
20093;SDS011;10206;48.012;10.030;2023-01-19T11:33:58;14.50;;;8.87;;
20093;SDS011;10206;48.012;10.030;2023-01-19T11:36:54;12.37;;;7.67;;
20093;SDS011;10206;48.012;10.030;2023-01-19T11:39:31;11.57;;;7.90;;
20093;SDS011;10206;48.012;10.030;2023-01-19T11:42:09;10.20;;;7.43;;
20093;SDS011;10206;48.012;10.030;2023-01-19T11:45:11;11.17;;;7.63;;
20093;SDS011;10206;48.012;10.030;2023-01-19T11:53:13;10.47;;;7.13;;
20093;SDS011;10206;48.012;10.030;2023-01-19T11:55:52;10.27;;;6.73;;
20093;SDS011;10206;48.012;10.030;2023-01-19T11:58:22;11.53;;;6.70;;
20093;SDS011;10206;48.012;10.030;2023-01-19T12:00:58;8.97;;;6.53;;
20093;SDS011;10206;48.012;10.030;2023-01-19T12:03:34;9.03;;;5.77;;
20093;SDS011;10206;48.012;10.030;2023-01-19T12:09:02;8.40;;;5.63;;
20093;SDS011;10206;48.012;10.030;2023-01-19T12:11:43;8.93;;;6.60;;
20093;SDS011;10206;48.012;10.030;2023-01-19T12:17:06;9.47;;;6.10;;
20093;SDS011;10206;48.012;10.030;2023-01-19T12:19:40;10.77;;;5.83;;
20093;SDS011;10206;48.012;10.030;2023-01-19T12:22:16;9.13;;;5.87;;
20093;SDS011;10206;48.012;10.030;2023-01-19T12:24:48;8.13;;;5.63;;
20093;SDS011;10206;48.012;10.030;2023-01-19T12:30:25;9.30;;;6.30;;
20093;SDS011;10206;48.012;10.030;2023-01-19T12:33:39;12.17;;;7.40;;
20093;SDS011;10206;48.012;10.030;2023-01-19T12:36:38;11.60;;;6.20;;
20093;SDS011;10206;48.012;10.030;2023-01-19T12:41:44;13.27;;;6.20;;
20093;SDS011;10206;48.012;10.030;2023-01-19T12:46:53;11.47;;;6.03;;
20093;SDS011;10206;48.012;10.030;2023-01-19T12:57:32;10.93;;;6.43;;
20093;SDS011;10206;48.012;10.030;2023-01-19T13:00:46;7.73;;;5.87;;
20093;SDS011;10206;48.012;10.030;2023-01-19T13:15:52;8.10;;;5.60;;
20093;SDS011;10206;48.012;10.030;2023-01-19T13:18:39;9.00;;;5.80;;
20093;SDS011;10206;48.012;10.030;2023-01-19T13:21:07;12.03;;;6.07;;
20093;SDS011;10206;48.012;10.030;2023-01-19T13:26:18;8.27;;;5.90;;
20093;SDS011;10206;48.012;10.030;2023-01-19T13:29:05;11.23;;;7.07;;
20093;SDS011;10206;48.012;10.030;2023-01-19T13:31:51;13.00;;;6.97;;
20093;SDS011;10206;48.012;10.030;2023-01-19T13:34:20;10.10;;;6.60;;
20093;SDS011;10206;48.012;10.030;2023-01-19T13:36:50;12.43;;;6.67;;
20093;SDS011;10206;48.012;10.030;2023-01-19T13:39:26;10.10;;;7.27;;
20093;SDS011;10206;48.012;10.030;2023-01-19T13:42:01;13.77;;;6.70;;
20093;SDS011;10206;48.012;10.030;2023-01-19T13:45:04;10.87;;;7.13;;
20093;SDS011;10206;48.012;10.030;2023-01-19T13:47:25;10.67;;;6.47;;
20093;SDS011;10206;48.012;10.030;2023-01-19T13:50:23;9.43;;;6.73;;
20093;SDS011;10206;48.012;10.030;2023-01-19T13:52:52;11.37;;;6.57;;
20093;SDS011;10206;48.012;10.030;2023-01-19T13:55:19;13.17;;;7.87;;
20093;SDS011;10206;48.012;10.030;2023-01-19T13:57:47;14.93;;;8.10;;
20093;SDS011;10206;48.012;10.030;2023-01-19T14:00:15;11.03;;;6.87;;
20093;SDS011;10206;48.012;10.030;2023-01-19T14:05:24;10.93;;;5.93;;
20093;SDS011;10206;48.012;10.030;2023-01-19T14:11:00;10.33;;;6.07;;
20093;SDS011;10206;48.012;10.030;2023-01-19T14:13:27;11.23;;;5.80;;
20093;SDS011;10206;48.012;10.030;2023-01-19T14:15:56;8.33;;;5.63;;
20093;SDS011;10206;48.012;10.030;2023-01-19T14:18:33;9.43;;;6.27;;
20093;SDS011;10206;48.012;10.030;2023-01-19T14:21:01;8.33;;;6.07;;
20093;SDS011;10206;48.012;10.030;2023-01-19T14:23:41;10.27;;;6.00;;
20093;SDS011;10206;48.012;10.030;2023-01-19T14:34:30;12.17;;;7.30;;
20093;SDS011;10206;48.012;10.030;2023-01-19T14:36:56;12.80;;;7.37;;
20093;SDS011;10206;48.012;10.030;2023-01-19T14:39:24;11.77;;;8.00;;
20093;SDS011;10206;48.012;10.030;2023-01-19T14:41:52;10.43;;;6.73;;
20093;SDS011;10206;48.012;10.030;2023-01-19T14:44:34;12.97;;;8.00;;
20093;SDS011;10206;48.012;10.030;2023-01-19T14:47:02;11.23;;;7.37;;
20093;SDS011;10206;48.012;10.030;2023-01-19T14:49:31;10.67;;;8.00;;
20093;SDS011;10206;48.012;10.030;2023-01-19T14:52:00;10.63;;;6.90;;
20093;SDS011;10206;48.012;10.030;2023-01-19T14:54:33;10.10;;;6.80;;
20093;SDS011;10206;48.012;10.030;2023-01-19T14:57:04;11.47;;;7.30;;
20093;SDS011;10206;48.012;10.030;2023-01-19T14:59:35;15.03;;;8.20;;
20093;SDS011;10206;48.012;10.030;2023-01-19T15:02:01;9.97;;;6.57;;
20093;SDS011;10206;48.012;10.030;2023-01-19T15:04:27;12.57;;;7.73;;
20093;SDS011;10206;48.012;10.030;2023-01-19T15:06:53;9.80;;;6.83;;
20093;SDS011;10206;48.012;10.030;2023-01-19T15:09:20;13.83;;;9.00;;
20093;SDS011;10206;48.012;10.030;2023-01-19T15:11:47;16.10;;;8.37;;
20093;SDS011;10206;48.012;10.030;2023-01-19T15:14:15;15.10;;;9.70;;
20093;SDS011;10206;48.012;10.030;2023-01-19T15:16:43;16.33;;;10.13;;
20093;SDS011;10206;48.012;10.030;2023-01-19T15:19:11;21.20;;;11.43;;
20093;SDS011;10206;48.012;10.030;2023-01-19T15:21:38;20.93;;;11.37;;
20093;SDS011;10206;48.012;10.030;2023-01-19T15:24:06;23.87;;;11.83;;
20093;SDS011;10206;48.012;10.030;2023-01-19T15:26:34;22.47;;;10.70;;
20093;SDS011;10206;48.012;10.030;2023-01-19T15:29:01;32.87;;;16.23;;
20093;SDS011;10206;48.012;10.030;2023-01-19T15:31:34;22.20;;;11.67;;
20093;SDS011;10206;48.012;10.030;2023-01-19T15:34:01;20.50;;;10.97;;
20093;SDS011;10206;48.012;10.030;2023-01-19T15:36:27;16.53;;;9.97;;
20093;SDS011;10206;48.012;10.030;2023-01-19T15:38:53;21.70;;;12.53;;
20093;SDS011;10206;48.012;10.030;2023-01-19T15:43:48;34.80;;;16.57;;
20093;SDS011;10206;48.012;10.030;2023-01-19T15:46:14;45.80;;;21.63;;
20093;SDS011;10206;48.012;10.030;2023-01-19T15:48:44;52.73;;;22.07;;
20093;SDS011;10206;48.012;10.030;2023-01-19T15:51:15;29.93;;;15.83;;
20093;SDS011;10206;48.012;10.030;2023-01-19T15:53:43;19.40;;;9.97;;
20093;SDS011;10206;48.012;10.030;2023-01-19T15:56:13;27.93;;;14.53;;
20093;SDS011;10206;48.012;10.030;2023-01-19T15:58:41;20.53;;;10.80;;
20093;SDS011;10206;48.012;10.030;2023-01-19T16:01:11;17.47;;;9.17;;
20093;SDS011;10206;48.012;10.030;2023-01-19T16:03:37;11.60;;;8.67;;
20093;SDS011;10206;48.012;10.030;2023-01-19T16:06:04;11.53;;;7.70;;
20093;SDS011;10206;48.012;10.030;2023-01-19T16:08:30;15.50;;;9.20;;
20093;SDS011;10206;48.012;10.030;2023-01-19T16:10:57;18.70;;;10.57;;
20093;SDS011;10206;48.012;10.030;2023-01-19T16:13:28;28.00;;;14.77;;
20093;SDS011;10206;48.012;10.030;2023-01-19T16:15:55;29.20;;;14.73;;